createdAt,value
2017-12-21T00:00:20.335Z,99726.61
2017-12-21T00:01:23.198Z,99723.85
2017-12-21T00:02:26.064Z,99717.23
2017-12-21T00:03:28.961Z,99721.72
2017-12-21T00:04:31.886Z,99727.98
2017-12-21T00:05:34.802Z,99729.03
2017-12-21T00:06:38.039Z,99727.80
2017-12-21T00:07:41.011Z,99723.16
2017-12-21T00:08:43.954Z,99727.29
2017-12-21T00:09:46.896Z,99726.45
2017-12-21T00:10:49.797Z,99732.53
2017-12-21T00:11:52.783Z,99730.30
2017-12-21T00:12:56.052Z,99729.90
2017-12-21T00:13:58.942Z,99727.19
2017-12-21T00:15:01.908Z,99730.69
2017-12-21T00:16:04.980Z,99730.95
2017-12-21T00:17:07.895Z,99732.31
2017-12-21T00:18:10.826Z,99736.89
2017-12-21T00:19:14.129Z,99732.25
2017-12-21T00:20:17.019Z,99723.52
2017-12-21T00:21:19.929Z,99733.21
2017-12-21T00:22:22.897Z,99731.51
2017-12-21T00:23:25.808Z,99728.92
2017-12-21T00:24:28.688Z,99725.64
2017-12-21T00:25:31.975Z,99725.23
2017-12-21T00:26:34.875Z,99726.55
2017-12-21T00:27:37.772Z,99720.57
2017-12-21T00:28:40.683Z,99722.52
2017-12-21T00:29:43.509Z,99724.91
2017-12-21T00:30:46.378Z,99722.59
2017-12-21T00:31:49.578Z,99720.97
2017-12-21T00:32:52.364Z,99723.20
2017-12-21T00:33:55.472Z,99730.36
2017-12-21T00:34:58.619Z,99728.84
2017-12-21T00:36:02.246Z,99731.00
2017-12-21T00:37:05.113Z,99729.28
2017-12-21T00:38:08.319Z,99724.05
2017-12-21T00:39:11.208Z,99726.02
2017-12-21T00:40:14.064Z,99722.58
2017-12-21T00:41:16.963Z,99713.63
2017-12-21T00:42:21.082Z,99715.66
2017-12-21T00:43:23.948Z,99710.41
2017-12-21T00:44:27.219Z,99709.05
2017-12-21T00:45:30.051Z,99712.05
2017-12-21T00:46:32.993Z,99714.95
2017-12-21T00:47:35.899Z,99714.17
2017-12-21T00:48:38.772Z,99715.22
2017-12-21T00:49:41.648Z,99724.44
2017-12-21T00:50:44.827Z,99723.14
2017-12-21T00:51:48.764Z,99727.59
2017-12-21T00:52:51.691Z,99728.95
2017-12-21T00:53:54.580Z,99725.31
2017-12-21T00:54:57.447Z,99728.30
2017-12-21T00:56:00.618Z,99727.12
2017-12-21T00:57:03.900Z,99723.62
2017-12-21T00:58:06.782Z,99723.73
2017-12-21T00:59:09.625Z,99718.77
2017-12-21T01:00:12.556Z,99724.41
2017-12-21T01:01:15.432Z,99717.89
2017-12-21T01:02:18.299Z,99725.73
2017-12-21T01:03:21.576Z,99727.54
2017-12-21T01:04:24.416Z,99721.73
2017-12-21T01:05:27.306Z,99736.63
2017-12-21T01:06:30.224Z,99731.58
2017-12-21T01:07:33.116Z,99733.49
2017-12-21T01:08:35.929Z,99729.91
2017-12-21T01:09:39.124Z,99735.19
2017-12-21T01:10:41.923Z,99731.69
2017-12-21T01:11:44.726Z,99725.23
2017-12-21T01:12:47.550Z,99726.47
2017-12-21T01:13:50.352Z,99718.01
2017-12-21T01:14:53.221Z,99720.48
2017-12-21T01:15:56.343Z,99728.53
2017-12-21T01:16:59.145Z,99728.30
2017-12-21T01:18:01.973Z,99727.86
2017-12-21T01:19:04.844Z,99738.71
2017-12-21T01:20:07.715Z,99736.84
2017-12-21T01:21:10.614Z,99737.86
2017-12-21T01:22:13.910Z,99743.20
2017-12-21T01:23:16.866Z,99748.83
2017-12-21T01:24:19.773Z,99751.88
2017-12-21T01:25:22.645Z,99752.92
2017-12-21T01:26:25.504Z,99753.96
2017-12-21T01:27:28.407Z,99747.92
2017-12-21T01:28:31.706Z,99742.57
2017-12-21T01:29:34.637Z,99757.21
2017-12-21T01:30:37.547Z,99758.20
2017-12-21T01:31:40.366Z,99748.05
2017-12-21T01:32:43.217Z,99751.91
2017-12-21T01:33:46.125Z,99756.75
2017-12-21T01:34:50.669Z,99751.58
2017-12-21T01:35:54.536Z,99755.69
2017-12-21T01:36:57.451Z,99754.92
2017-12-21T01:38:00.322Z,99752.89
2017-12-21T01:39:03.213Z,99759.00
2017-12-21T01:40:06.117Z,99760.06
2017-12-21T01:41:09.486Z,99753.28
2017-12-21T01:42:12.384Z,99753.01
2017-12-21T01:43:15.276Z,99759.20
2017-12-21T01:44:18.182Z,99750.46
2017-12-21T01:45:21.116Z,99756.13
2017-12-21T01:46:24.024Z,99751.40
2017-12-21T01:47:28.550Z,99747.99
2017-12-21T01:48:31.710Z,99749.87
2017-12-21T01:49:34.720Z,99748.28
2017-12-21T01:50:37.869Z,99748.00
2017-12-21T01:51:40.981Z,99752.31
2017-12-21T01:52:43.833Z,99752.91
2017-12-21T01:53:47.018Z,99753.14
2017-12-21T01:54:49.862Z,99752.41
2017-12-21T01:55:52.745Z,99754.59
2017-12-21T01:56:55.636Z,99744.77
2017-12-21T01:57:58.494Z,99749.23
2017-12-21T01:59:01.374Z,99744.23
2017-12-21T02:00:04.582Z,99743.98
2017-12-21T02:01:07.461Z,99742.97
2017-12-21T02:02:10.325Z,99743.55
2017-12-21T02:03:13.199Z,99742.52
2017-12-21T02:04:16.081Z,99747.61
2017-12-21T02:05:18.956Z,99750.95
2017-12-21T02:06:22.275Z,99748.61
2017-12-21T02:07:25.147Z,99745.52
2017-12-21T02:08:28.025Z,99748.00
2017-12-21T02:09:30.900Z,99739.88
2017-12-21T02:10:33.791Z,99740.66
2017-12-21T02:11:36.689Z,99732.03
2017-12-21T02:12:39.578Z,99732.94
2017-12-21T02:13:42.463Z,99733.67
2017-12-21T02:14:45.367Z,99730.56
2017-12-21T02:15:48.239Z,99722.16
2017-12-21T02:16:51.184Z,99719.77
2017-12-21T02:17:54.457Z,99719.63
2017-12-21T02:18:57.326Z,99715.44
2017-12-21T02:20:00.209Z,99709.02
2017-12-21T02:21:03.175Z,99706.25
2017-12-21T02:22:06.021Z,99711.64
2017-12-21T02:23:08.937Z,99712.61
2017-12-21T02:24:12.228Z,99717.30
2017-12-21T02:25:15.150Z,99729.14
2017-12-21T02:26:17.949Z,99725.08
2017-12-21T02:27:20.785Z,99724.22
2017-12-21T02:28:23.640Z,99726.33
2017-12-21T02:29:26.537Z,99716.84
2017-12-21T02:30:29.880Z,99720.56
2017-12-21T02:31:32.720Z,99723.84
2017-12-21T02:32:35.597Z,99727.45
2017-12-21T02:33:39.435Z,99729.11
2017-12-21T02:34:42.322Z,99737.62
2017-12-21T02:35:45.209Z,99731.02
2017-12-21T02:36:49.069Z,99738.59
2017-12-21T02:37:51.943Z,99739.31
2017-12-21T02:38:54.817Z,99740.31
2017-12-21T02:39:57.781Z,99745.42
2017-12-21T02:41:00.621Z,99745.64
2017-12-21T02:42:03.514Z,99744.60
2017-12-21T02:43:06.818Z,99746.66
2017-12-21T02:44:09.668Z,99741.08
2017-12-21T02:45:12.529Z,99739.77
2017-12-21T02:46:15.392Z,99740.81
2017-12-21T02:47:18.253Z,99741.05
2017-12-21T02:48:21.108Z,99740.88
2017-12-21T02:49:24.449Z,99738.80
2017-12-21T02:50:27.326Z,99739.70
2017-12-21T02:51:30.172Z,99739.48
2017-12-21T02:52:33.650Z,99743.83
2017-12-21T02:53:36.537Z,99736.04
2017-12-21T02:54:39.458Z,99735.80
2017-12-21T02:55:42.686Z,99736.87
2017-12-21T02:56:45.556Z,99735.52
2017-12-21T02:57:48.468Z,99732.85
2017-12-21T02:58:51.366Z,99727.97
2017-12-21T02:59:54.241Z,99731.87
2017-12-21T03:00:57.146Z,99725.66
2017-12-21T03:02:00.379Z,99725.53
2017-12-21T03:03:03.286Z,99726.16
2017-12-21T03:04:06.133Z,99724.02
2017-12-21T03:05:08.990Z,99717.81
2017-12-21T03:06:11.790Z,99724.56
2017-12-21T03:07:14.614Z,99724.13
2017-12-21T03:08:17.871Z,99723.04
2017-12-21T03:09:20.775Z,99717.00
2017-12-21T03:10:23.580Z,99717.74
2017-12-21T03:11:26.411Z,99715.42
2017-12-21T03:12:29.229Z,99718.63
2017-12-21T03:13:32.050Z,99715.48
2017-12-21T03:14:35.190Z,99715.38
2017-12-21T03:15:38.052Z,99716.34
2017-12-21T03:16:41.242Z,99714.26
2017-12-21T03:17:44.111Z,99707.94
2017-12-21T03:18:46.873Z,99714.48
2017-12-21T03:19:49.686Z,99711.95
2017-12-21T03:20:52.821Z,99711.59
2017-12-21T03:21:55.631Z,99711.48
2017-12-21T03:22:58.490Z,99708.59
2017-12-21T03:24:01.394Z,99714.37
2017-12-21T03:25:04.257Z,99709.28
2017-12-21T03:26:07.257Z,99705.61
2017-12-21T03:27:10.583Z,99704.44
2017-12-21T03:28:13.549Z,99704.81
2017-12-21T03:29:16.346Z,99704.49
2017-12-21T03:30:19.155Z,99708.72
2017-12-21T03:31:21.953Z,99708.00
2017-12-21T03:32:24.798Z,99708.44
2017-12-21T03:33:27.917Z,99708.77
2017-12-21T03:34:30.886Z,99709.80
2017-12-21T03:35:33.838Z,99707.53
2017-12-21T03:36:37.740Z,99716.72
2017-12-21T03:37:40.656Z,99714.38
2017-12-21T03:38:43.641Z,99710.31
2017-12-21T03:39:46.849Z,99713.41
2017-12-21T03:40:49.662Z,99712.45
2017-12-21T03:41:52.451Z,99710.13
2017-12-21T03:42:55.246Z,99703.48
2017-12-21T03:43:58.127Z,99705.67
2017-12-21T03:45:01.024Z,99708.38
2017-12-21T03:46:04.327Z,99706.29
2017-12-21T03:47:07.252Z,99704.27
2017-12-21T03:48:10.148Z,99700.59
2017-12-21T03:49:13.192Z,99697.48
2017-12-21T03:50:16.137Z,99694.83
2017-12-21T03:51:19.089Z,99694.27
2017-12-21T03:52:22.370Z,99689.58
2017-12-21T03:53:25.288Z,99694.28
2017-12-21T03:54:28.134Z,99687.55
2017-12-21T03:55:31.041Z,99698.05
2017-12-21T03:56:34.188Z,99692.93
2017-12-21T03:57:37.135Z,99681.98
2017-12-21T03:58:40.473Z,99684.95
2017-12-21T03:59:43.367Z,99688.35
2017-12-21T04:00:46.342Z,99690.27
2017-12-21T04:01:49.237Z,99686.13
2017-12-21T04:02:52.136Z,99693.37
2017-12-21T04:03:55.175Z,99691.20
2017-12-21T04:04:58.550Z,99691.82
2017-12-21T04:06:01.462Z,99691.42
2017-12-21T04:07:04.395Z,99697.09
2017-12-21T04:08:07.283Z,99696.99
2017-12-21T04:09:10.122Z,99700.70
2017-12-21T04:10:12.958Z,99699.64
2017-12-21T04:11:16.283Z,99701.84
2017-12-21T04:12:19.291Z,99702.52
2017-12-21T04:13:22.162Z,99703.75
2017-12-21T04:14:25.066Z,99697.83
2017-12-21T04:15:27.982Z,99696.53
2017-12-21T04:16:30.916Z,99699.23
2017-12-21T04:17:33.805Z,99700.81
2017-12-21T04:18:36.747Z,99695.70
2017-12-21T04:19:39.646Z,99697.99
2017-12-21T04:20:42.557Z,99697.84
2017-12-21T04:21:45.471Z,99691.75
2017-12-21T04:22:48.345Z,99689.25
2017-12-21T04:23:51.226Z,99690.53
2017-12-21T04:24:54.152Z,99691.45
2017-12-21T04:25:57.044Z,99690.31
2017-12-21T04:26:59.988Z,99690.66
2017-12-21T04:28:03.328Z,99687.61
2017-12-21T04:29:06.201Z,99689.02
2017-12-21T04:30:09.110Z,99686.28
2017-12-21T04:31:12.257Z,99687.11
2017-12-21T04:32:15.135Z,99688.17
2017-12-21T04:33:17.998Z,99685.80
2017-12-21T04:34:21.171Z,99679.38
2017-12-21T04:35:24.038Z,99682.06
2017-12-21T04:36:26.923Z,99683.25
2017-12-21T04:37:29.887Z,99686.52
2017-12-21T04:38:32.746Z,99685.18
2017-12-21T04:39:35.624Z,99688.13
2017-12-21T04:40:38.870Z,99683.31
2017-12-21T04:41:41.739Z,99686.47
2017-12-21T04:42:44.647Z,99684.06
2017-12-21T04:43:47.520Z,99676.27
2017-12-21T04:44:50.367Z,99676.85
2017-12-21T04:45:53.300Z,99680.89
2017-12-21T04:46:56.609Z,99672.77
2017-12-21T04:47:59.504Z,99672.26
2017-12-21T04:49:02.339Z,99675.41
2017-12-21T04:50:05.251Z,99673.66
2017-12-21T04:51:08.125Z,99666.22
2017-12-21T04:52:11.063Z,99668.86
2017-12-21T04:53:14.332Z,99674.67
2017-12-21T04:54:18.147Z,99671.14
2017-12-21T04:55:20.921Z,99670.62
2017-12-21T04:56:23.737Z,99670.23
2017-12-21T04:57:26.582Z,99675.21
2017-12-21T04:58:29.435Z,99667.36
2017-12-21T04:59:32.608Z,99672.84
2017-12-21T05:00:35.469Z,99674.97
2017-12-21T05:01:38.316Z,99667.34
2017-12-21T05:02:41.210Z,99667.19
2017-12-21T05:03:44.170Z,99666.07
2017-12-21T05:04:47.036Z,99665.33
2017-12-21T05:05:50.228Z,99661.77
2017-12-21T05:06:53.075Z,99663.12
2017-12-21T05:07:56.008Z,99660.43
2017-12-21T05:08:58.888Z,99661.94
2017-12-21T05:10:01.763Z,99656.80
2017-12-21T05:11:04.740Z,99659.73
2017-12-21T05:12:07.659Z,99659.12
2017-12-21T05:13:10.498Z,99661.84
2017-12-21T05:14:13.355Z,99660.42
2017-12-21T05:15:16.287Z,99660.20
2017-12-21T05:16:19.169Z,99664.26
2017-12-21T05:17:22.404Z,99663.36
2017-12-21T05:18:25.256Z,99662.80
2017-12-21T05:19:28.173Z,99663.23
2017-12-21T05:20:31.092Z,99662.15
2017-12-21T05:21:33.946Z,99654.05
2017-12-21T05:22:36.860Z,99655.55
2017-12-21T05:23:40.065Z,99667.52
2017-12-21T05:24:42.938Z,99663.69
2017-12-21T05:25:45.816Z,99664.25
2017-12-21T05:26:48.733Z,99666.41
2017-12-21T05:27:51.653Z,99668.09
2017-12-21T05:28:54.531Z,99669.49
2017-12-21T05:29:57.854Z,99664.98
2017-12-21T05:31:00.677Z,99667.65
2017-12-21T05:32:03.527Z,99671.37
2017-12-21T05:33:06.377Z,99669.80
2017-12-21T05:34:09.256Z,99664.60
2017-12-21T05:35:12.169Z,99667.08
2017-12-21T05:36:15.564Z,99661.55
2017-12-21T05:37:18.490Z,99665.39
2017-12-21T05:38:22.335Z,99668.38
2017-12-21T05:39:25.281Z,99667.97
2017-12-21T05:40:28.234Z,99667.48
2017-12-21T05:41:31.210Z,99671.03
2017-12-21T05:42:34.416Z,99672.28
2017-12-21T05:43:37.356Z,99663.86
2017-12-21T05:44:40.237Z,99669.23
2017-12-21T05:45:43.320Z,99670.41
2017-12-21T05:46:46.152Z,99668.95
2017-12-21T05:47:49.900Z,99665.03
2017-12-21T05:48:53.088Z,99667.57
2017-12-21T05:49:56.058Z,99668.66
2017-12-21T05:50:59.138Z,99669.52
2017-12-21T05:52:02.108Z,99671.94
2017-12-21T05:53:04.983Z,99668.30
2017-12-21T05:54:07.951Z,99668.03
2017-12-21T05:55:11.203Z,99668.83
2017-12-21T05:56:14.108Z,99673.45
2017-12-21T05:57:17.072Z,99672.98
2017-12-21T05:58:19.992Z,99674.64
2017-12-21T05:59:22.866Z,99670.44
2017-12-21T06:00:25.729Z,99670.48
2017-12-21T06:01:28.571Z,99667.84
2017-12-21T06:02:31.407Z,99668.64
2017-12-21T06:03:34.263Z,99669.50
2017-12-21T06:04:37.212Z,99670.59
2017-12-21T06:05:40.159Z,99674.77
2017-12-21T06:06:43.443Z,99680.36
2017-12-21T06:07:46.353Z,99674.20
2017-12-21T06:08:49.253Z,99671.91
2017-12-21T06:09:52.173Z,99675.23
2017-12-21T06:10:55.748Z,99681.91
2017-12-21T06:11:58.651Z,99678.60
2017-12-21T06:13:02.097Z,99682.25
2017-12-21T06:14:05.009Z,99680.56
2017-12-21T06:15:07.990Z,99687.34
2017-12-21T06:16:10.856Z,99694.34
2017-12-21T06:17:13.753Z,99685.07
2017-12-21T06:18:16.593Z,99686.32
2017-12-21T06:19:19.844Z,99685.88
2017-12-21T06:20:22.768Z,99687.05
2017-12-21T06:21:25.740Z,99683.32
2017-12-21T06:22:28.658Z,99682.77
2017-12-21T06:23:32.426Z,99683.37
2017-12-21T06:24:35.214Z,99685.08
2017-12-21T06:25:38.056Z,99688.05
2017-12-21T06:26:40.927Z,99682.18
2017-12-21T06:27:43.847Z,99686.55
2017-12-21T06:28:46.724Z,99683.53
2017-12-21T06:29:49.636Z,99686.77
2017-12-21T06:30:53.641Z,99685.13
2017-12-21T06:31:56.744Z,99679.32
2017-12-21T06:32:59.670Z,99681.67
2017-12-21T06:34:02.489Z,99673.44
2017-12-21T06:35:05.354Z,99677.52
2017-12-21T06:36:08.186Z,99679.08
2017-12-21T06:37:12.104Z,99680.44
2017-12-21T06:38:15.015Z,99677.44
2017-12-21T06:39:17.841Z,99678.72
2017-12-21T06:40:20.643Z,99677.53
2017-12-21T06:41:23.503Z,99676.00
2017-12-21T06:42:26.340Z,99676.61
2017-12-21T06:43:29.606Z,99677.50
2017-12-21T06:44:32.443Z,99684.39
2017-12-21T06:45:35.348Z,99680.33
2017-12-21T06:46:38.228Z,99678.91
2017-12-21T06:47:41.095Z,99687.16
2017-12-21T06:48:44.013Z,99683.66
2017-12-21T06:49:47.334Z,99685.80
2017-12-21T06:50:50.209Z,99682.88
2017-12-21T06:51:53.095Z,99686.31
2017-12-21T06:52:56.017Z,99679.70
2017-12-21T06:53:58.888Z,99685.34
2017-12-21T06:55:01.764Z,99689.06
2017-12-21T06:56:05.030Z,99691.66
2017-12-21T06:57:07.965Z,99690.22
2017-12-21T06:58:10.840Z,99697.36
2017-12-21T06:59:13.782Z,99695.06
2017-12-21T07:00:17.015Z,99695.97
2017-12-21T07:01:19.896Z,99697.05
2017-12-21T07:02:23.343Z,99694.67
2017-12-21T07:03:26.250Z,99695.13
2017-12-21T07:04:29.202Z,99695.35
2017-12-21T07:05:32.108Z,99698.72
2017-12-21T07:06:35.027Z,99694.04
2017-12-21T07:07:37.922Z,99696.30
2017-12-21T07:08:41.405Z,99694.89
2017-12-21T07:09:44.295Z,99700.49
2017-12-21T07:10:47.385Z,99699.08
2017-12-21T07:11:50.304Z,99694.83
2017-12-21T07:12:53.432Z,99700.38
2017-12-21T07:13:56.297Z,99698.00
2017-12-21T07:14:59.753Z,99693.36
2017-12-21T07:16:02.684Z,99701.84
2017-12-21T07:17:05.571Z,99698.52
2017-12-21T07:18:08.467Z,99703.34
2017-12-21T07:19:11.466Z,99698.33
2017-12-21T07:20:14.328Z,99701.23
2017-12-21T07:21:17.682Z,99698.50
2017-12-21T07:22:20.602Z,99699.69
2017-12-21T07:23:23.510Z,99694.67
2017-12-21T07:24:26.861Z,99694.83
2017-12-21T07:25:29.729Z,99701.09
2017-12-21T07:26:32.622Z,99701.33
2017-12-21T07:27:35.953Z,99698.44
2017-12-21T07:28:38.835Z,99704.09
2017-12-21T07:29:41.747Z,99701.80
2017-12-21T07:30:44.729Z,99704.33
2017-12-21T07:31:47.577Z,99703.35
2017-12-21T07:32:50.531Z,99704.94
2017-12-21T07:33:53.981Z,99708.66
2017-12-21T07:34:56.874Z,99705.50
2017-12-21T07:35:59.800Z,99694.09
2017-12-21T07:37:02.710Z,99696.77
2017-12-21T07:38:05.602Z,99700.08
2017-12-21T07:39:08.540Z,99693.41
2017-12-21T07:40:11.736Z,99692.74
2017-12-21T07:41:14.613Z,99686.59
2017-12-21T07:42:17.486Z,99685.24
2017-12-21T07:43:20.397Z,99692.12
2017-12-21T07:44:23.312Z,99690.14
2017-12-21T07:45:26.244Z,99689.13
2017-12-21T07:46:29.487Z,99688.16
2017-12-21T07:47:32.842Z,99684.80
2017-12-21T07:48:35.822Z,99686.98
2017-12-21T07:49:38.726Z,99687.50
2017-12-21T07:50:41.700Z,99684.56
2017-12-21T07:51:44.584Z,99683.19
2017-12-21T07:52:47.819Z,99679.08
2017-12-21T07:53:50.685Z,99683.30
2017-12-21T07:54:54.290Z,99684.22
2017-12-21T07:55:57.256Z,99684.94
2017-12-21T07:57:00.196Z,99689.20
2017-12-21T07:58:03.104Z,99690.36
2017-12-21T07:59:06.359Z,99693.33
2017-12-21T08:00:09.328Z,99694.78
2017-12-21T08:01:12.274Z,99690.83
2017-12-21T08:02:15.288Z,99690.76
2017-12-21T08:03:18.179Z,99695.39
2017-12-21T08:04:21.763Z,99694.03
2017-12-21T08:05:24.976Z,99698.84
2017-12-21T08:06:27.939Z,99703.41
2017-12-21T08:07:30.929Z,99700.59
2017-12-21T08:08:34.144Z,99706.04
2017-12-21T08:09:37.068Z,99702.81
2017-12-21T08:10:39.969Z,99702.56
2017-12-21T08:11:43.290Z,99696.30
2017-12-21T08:12:46.233Z,99696.87
2017-12-21T08:13:49.139Z,99696.48
2017-12-21T08:14:52.021Z,99697.02
2017-12-21T08:15:54.959Z,99692.06
2017-12-21T08:16:57.906Z,99694.25
2017-12-21T08:18:01.088Z,99701.22
2017-12-21T08:19:03.978Z,99697.00
2017-12-21T08:20:06.990Z,99702.23
2017-12-21T08:21:09.909Z,99698.22
2017-12-21T08:22:12.853Z,99696.92
2017-12-21T08:23:15.763Z,99693.94
2017-12-21T08:24:18.988Z,99695.55
2017-12-21T08:25:21.934Z,99698.28
2017-12-21T08:26:24.908Z,99697.00
2017-12-21T08:27:27.819Z,99698.78
2017-12-21T08:28:30.764Z,99702.53
2017-12-21T08:29:33.639Z,99699.59
2017-12-21T08:30:36.918Z,99702.27
2017-12-21T08:31:39.850Z,99705.99
2017-12-21T08:32:42.758Z,99703.21
2017-12-21T08:33:45.675Z,99701.16
2017-12-21T08:34:48.619Z,99702.00
2017-12-21T08:35:51.628Z,99700.86
2017-12-21T08:36:54.923Z,99705.13
2017-12-21T08:37:57.861Z,99702.78
2017-12-21T08:39:00.788Z,99704.44
2017-12-21T08:40:03.720Z,99715.01
2017-12-21T08:41:06.695Z,99706.75
2017-12-21T08:42:09.615Z,99712.47
2017-12-21T08:43:13.031Z,99712.16
2017-12-21T08:44:16.431Z,99716.22
2017-12-21T08:45:19.371Z,99725.40
2017-12-21T08:46:22.280Z,99728.17
2017-12-21T08:47:25.232Z,99727.42
2017-12-21T08:48:28.175Z,99726.03
2017-12-21T08:49:31.656Z,99725.53
2017-12-21T08:50:34.572Z,99730.61
2017-12-21T08:51:37.542Z,99724.31
2017-12-21T08:52:40.584Z,99735.63
2017-12-21T08:53:43.537Z,99730.13
2017-12-21T08:54:46.496Z,99727.67
2017-12-21T08:55:49.847Z,99729.65
2017-12-21T08:56:52.869Z,99732.19
2017-12-21T08:57:55.736Z,99730.91
2017-12-21T08:58:58.637Z,99731.01
2017-12-21T09:00:01.553Z,99733.91
2017-12-21T09:01:04.448Z,99733.84
2017-12-21T09:02:07.784Z,99736.60
2017-12-21T09:03:10.725Z,99736.91
2017-12-21T09:04:13.644Z,99735.20
2017-12-21T09:05:17.471Z,99737.17
2017-12-21T09:06:20.393Z,99735.52
2017-12-21T09:07:23.299Z,99735.50
2017-12-21T09:08:26.701Z,99734.16
2017-12-21T09:09:29.612Z,99734.59
2017-12-21T09:10:32.580Z,99736.64
2017-12-21T09:11:35.512Z,99733.28
2017-12-21T09:12:38.414Z,99731.37
2017-12-21T09:13:41.348Z,99740.63
2017-12-21T09:14:44.868Z,99737.95
2017-12-21T09:15:47.858Z,99737.34
2017-12-21T09:16:50.935Z,99738.84
2017-12-21T09:17:53.733Z,99741.86
2017-12-21T09:18:56.567Z,99737.39
2017-12-21T09:19:59.536Z,99740.11
2017-12-21T09:21:02.930Z,99738.27
2017-12-21T09:22:05.877Z,99736.69
2017-12-21T09:23:08.801Z,99742.99
2017-12-21T09:24:11.756Z,99739.98
2017-12-21T09:25:14.685Z,99736.95
2017-12-21T09:26:17.716Z,99741.14
2017-12-21T09:27:21.505Z,99745.02
2017-12-21T09:28:25.341Z,99742.46
2017-12-21T09:29:28.300Z,99741.25
2017-12-21T09:30:32.243Z,99737.48
2017-12-21T09:31:35.185Z,99742.28
2017-12-21T09:32:38.136Z,99738.58
2017-12-21T09:33:41.546Z,99733.42
2017-12-21T09:34:44.455Z,99732.31
2017-12-21T09:35:47.462Z,99736.30
2017-12-21T09:36:51.214Z,99736.51
2017-12-21T09:37:56.813Z,99733.41
2017-12-21T09:38:59.734Z,99728.38
2017-12-21T09:40:03.254Z,99730.69
2017-12-21T09:41:06.184Z,99727.63
2017-12-21T09:42:09.148Z,99727.80
2017-12-21T09:43:12.150Z,99735.95
2017-12-21T09:44:15.172Z,99728.66
2017-12-21T09:45:18.160Z,99729.51
2017-12-21T09:46:22.898Z,99726.77
2017-12-21T09:47:25.889Z,99720.95
2017-12-21T09:48:28.784Z,99727.63
2017-12-21T09:49:31.699Z,99728.83
2017-12-21T09:50:34.600Z,99721.30
2017-12-21T09:51:37.477Z,99720.50
2017-12-21T09:52:40.916Z,99725.84
2017-12-21T09:53:44.531Z,99717.86
2017-12-21T09:54:47.474Z,99719.83
2017-12-21T09:55:50.477Z,99716.39
2017-12-21T09:56:53.445Z,99722.52
2017-12-21T09:57:56.375Z,99721.93
2017-12-21T09:58:59.302Z,99722.45
2017-12-21T10:00:02.310Z,99720.81
2017-12-21T10:01:05.214Z,99722.31
2017-12-21T10:02:08.146Z,99724.35
2017-12-21T10:03:10.997Z,99722.87
2017-12-21T10:04:14.276Z,99723.38
2017-12-21T10:05:17.176Z,99720.58
2017-12-21T10:06:20.181Z,99724.89
2017-12-21T10:07:23.131Z,99720.72
2017-12-21T10:08:26.073Z,99722.67
2017-12-21T10:09:28.956Z,99724.30
2017-12-21T10:10:32.227Z,99719.59
2017-12-21T10:11:35.160Z,99722.70
2017-12-21T10:12:38.056Z,99716.95
2017-12-21T10:13:40.964Z,99720.20
2017-12-21T10:14:43.876Z,99718.05
2017-12-21T10:15:46.894Z,99721.45
2017-12-21T10:16:50.255Z,99724.25
2017-12-21T10:17:53.246Z,99716.56
2017-12-21T10:18:56.217Z,99713.17
2017-12-21T10:19:59.207Z,99718.43
2017-12-21T10:21:02.135Z,99713.30
2017-12-21T10:22:05.086Z,99716.73
2017-12-21T10:23:08.399Z,99718.93
2017-12-21T10:24:11.648Z,99716.80
2017-12-21T10:25:14.698Z,99716.03
2017-12-21T10:26:17.622Z,99711.09
2017-12-21T10:28:31.181Z,99706.98
2017-12-21T10:29:34.480Z,99707.38
2017-12-21T10:30:37.442Z,99713.72
2017-12-21T10:31:40.351Z,99708.72
2017-12-21T10:32:43.531Z,99705.57
2017-12-21T10:33:46.479Z,99706.92
2017-12-21T10:34:49.418Z,99696.81
2017-12-21T10:35:52.444Z,99707.03
2017-12-21T10:36:55.422Z,99705.45
2017-12-21T10:37:58.376Z,99707.50
2017-12-21T10:39:01.407Z,99701.38
2017-12-21T10:40:04.372Z,99704.13
2017-12-21T10:41:07.757Z,99704.35
2017-12-21T10:42:10.687Z,99703.16
2017-12-21T10:43:15.034Z,99707.67
2017-12-21T10:44:18.023Z,99698.91
2017-12-21T10:45:20.984Z,99700.50
2017-12-21T10:46:23.925Z,99697.43
2017-12-21T10:47:27.376Z,99700.64
2017-12-21T10:48:30.312Z,99694.02
2017-12-21T10:49:33.259Z,99692.84
2017-12-21T10:50:36.256Z,99693.31
2017-12-21T10:51:39.324Z,99696.16
2017-12-21T10:52:42.231Z,99701.41
2017-12-21T10:53:45.558Z,99695.38
2017-12-21T10:54:48.508Z,99694.93
2017-12-21T10:55:51.465Z,99690.73
2017-12-21T10:56:54.381Z,99695.09
2017-12-21T10:57:57.692Z,99697.23
2017-12-21T10:59:00.661Z,99694.82
2017-12-21T11:00:04.012Z,99698.38
2017-12-21T11:01:06.902Z,99697.69
2017-12-21T11:02:10.313Z,99696.11
2017-12-21T11:03:13.240Z,99697.06
2017-12-21T11:04:16.104Z,99695.80
2017-12-21T11:05:19.123Z,99693.03
2017-12-21T11:06:22.363Z,99698.42
2017-12-21T11:07:25.267Z,99694.25
2017-12-21T11:08:28.149Z,99689.13
2017-12-21T11:09:31.097Z,99696.84
2017-12-21T11:10:34.070Z,99699.28
2017-12-21T11:11:36.981Z,99698.09
2017-12-21T11:12:40.252Z,99702.47
2017-12-21T11:13:43.168Z,99702.61
2017-12-21T11:14:46.131Z,99705.07
2017-12-21T11:15:49.025Z,99705.07
2017-12-21T11:16:51.933Z,99713.17
2017-12-21T11:17:54.797Z,99709.83
2017-12-21T11:18:58.129Z,99705.26
2017-12-21T11:20:01.078Z,99704.69
2017-12-21T11:21:04.009Z,99701.92
2017-12-21T11:22:07.000Z,99703.09
2017-12-21T11:23:10.018Z,99702.47
2017-12-21T11:24:12.972Z,99700.84
2017-12-21T11:25:16.308Z,99696.92
2017-12-21T11:26:19.213Z,99696.06
2017-12-21T11:27:22.111Z,99698.52
2017-12-21T11:28:25.072Z,99692.53
2017-12-21T11:29:28.080Z,99690.61
2017-12-21T11:30:31.090Z,99685.25
2017-12-21T11:31:35.859Z,99692.80
2017-12-21T11:32:38.917Z,99694.63
2017-12-21T11:33:41.877Z,99689.89
2017-12-21T11:34:44.701Z,99693.31
2017-12-21T11:35:47.657Z,99687.48
2017-12-21T11:36:51.383Z,99693.33
2017-12-21T11:37:55.844Z,99691.09
2017-12-21T11:38:58.838Z,99682.83
2017-12-21T11:40:01.734Z,99684.98
2017-12-21T11:41:05.344Z,99686.09
2017-12-21T11:42:08.278Z,99687.56
2017-12-21T11:43:11.534Z,99686.98
2017-12-21T11:44:14.455Z,99687.45
2017-12-21T11:45:17.410Z,99682.55
2017-12-21T11:46:20.274Z,99686.23
2017-12-21T11:47:23.196Z,99688.49
2017-12-21T11:48:26.149Z,99690.03
2017-12-21T11:49:29.440Z,99683.55
2017-12-21T11:50:32.336Z,99681.23
2017-12-21T11:51:35.421Z,99680.58
2017-12-21T11:52:38.334Z,99680.30
2017-12-21T11:53:41.272Z,99676.58
2017-12-21T11:54:44.141Z,99670.95
2017-12-21T11:55:47.343Z,99679.83
2017-12-21T11:56:50.230Z,99675.56
2017-12-21T11:57:53.160Z,99670.55
2017-12-21T11:58:56.120Z,99665.90
2017-12-21T11:59:59.052Z,99668.39
2017-12-21T12:01:01.964Z,99663.88
2017-12-21T12:02:05.151Z,99668.00
2017-12-21T12:03:08.189Z,99660.70
2017-12-21T12:04:11.122Z,99665.86
2017-12-21T12:05:14.052Z,99661.02
2017-12-21T12:06:16.998Z,99666.14
2017-12-21T12:07:19.960Z,99666.89
2017-12-21T12:08:23.292Z,99658.69
2017-12-21T12:09:26.245Z,99663.13
2017-12-21T12:10:29.169Z,99668.56
2017-12-21T12:11:32.066Z,99666.05
2017-12-21T12:12:34.956Z,99666.52
2017-12-21T12:13:37.903Z,99666.09
2017-12-21T12:14:41.426Z,99662.19
2017-12-21T12:15:44.330Z,99662.51
2017-12-21T12:16:47.269Z,99664.13
2017-12-21T12:17:50.281Z,99661.48
2017-12-21T12:18:53.223Z,99661.93
2017-12-21T12:19:57.180Z,99659.56
2017-12-21T12:21:00.395Z,99654.88